sensor_id;sensor_type;location;lat;lon;timestamp;pressure;altitude;pressure_sealevel;temperature;humidity
26531;BME280;14201;43.188;24.160;2024-01-16T00:00:34;97960.69;;;9.87;64.93
26531;BME280;14201;43.188;24.160;2024-01-16T00:03:00;97952.88;;;9.87;64.74
26531;BME280;14201;43.188;24.160;2024-01-16T00:05:25;97966.97;;;10.01;64.15
26531;BME280;14201;43.188;24.160;2024-01-16T00:07:51;97972.34;;;10.11;63.77
26531;BME280;14201;43.188;24.160;2024-01-16T00:10:16;97980.31;;;10.20;63.28
26531;BME280;14201;43.188;24.160;2024-01-16T00:12:42;97976.88;;;10.22;62.91
26531;BME280;14201;43.188;24.160;2024-01-16T00:15:08;97984.75;;;10.25;62.89
26531;BME280;14201;43.188;24.160;2024-01-16T00:17:34;97989.81;;;10.18;62.93
26531;BME280;14201;43.188;24.160;2024-01-16T00:20:00;98003.72;;;10.20;63.10
26531;BME280;14201;43.188;24.160;2024-01-16T00:22:29;98006.34;;;10.20;62.89
26531;BME280;14201;43.188;24.160;2024-01-16T00:24:55;98009.72;;;10.17;62.96
26531;BME280;14201;43.188;24.160;2024-01-16T00:27:20;98001.13;;;10.21;62.91
26531;BME280;14201;43.188;24.160;2024-01-16T00:29:46;98003.78;;;10.24;62.30
26531;BME280;14201;43.188;24.160;2024-01-16T00:32:12;97992.56;;;10.25;62.33
26531;BME280;14201;43.188;24.160;2024-01-16T00:34:41;98009.91;;;10.27;62.17
26531;BME280;14201;43.188;24.160;2024-01-16T00:37:07;98019.38;;;10.23;62.99
26531;BME280;14201;43.188;24.160;2024-01-16T00:39:33;98019.38;;;10.23;62.74
26531;BME280;14201;43.188;24.160;2024-01-16T00:41:58;98030.63;;;10.20;63.04
26531;BME280;14201;43.188;24.160;2024-01-16T00:44:24;98040.97;;;10.17;63.41
26531;BME280;14201;43.188;24.160;2024-01-16T00:46:50;98033.16;;;10.17;63.21
26531;BME280;14201;43.188;24.160;2024-01-16T00:49:15;98040.97;;;10.17;61.62
26531;BME280;14201;43.188;24.160;2024-01-16T00:51:41;98024.91;;;9.91;60.91
26531;BME280;14201;43.188;24.160;2024-01-16T00:54:06;98039.25;;;9.72;61.28
26531;BME280;14201;43.188;24.160;2024-01-16T00:56:34;98043.00;;;9.42;61.67
26531;BME280;14201;43.188;24.160;2024-01-16T00:59:00;98048.75;;;8.88;62.80
26531;BME280;14201;43.188;24.160;2024-01-16T01:01:26;98051.22;;;8.47;64.02
26531;BME280;14201;43.188;24.160;2024-01-16T01:03:52;98061.34;;;8.04;65.20
26531;BME280;14201;43.188;24.160;2024-01-16T01:06:17;98077.88;;;7.76;66.66
26531;BME280;14201;43.188;24.160;2024-01-16T01:08:43;98074.16;;;7.66;67.18
26531;BME280;14201;43.188;24.160;2024-01-16T01:11:09;98089.34;;;7.54;67.51
26531;BME280;14201;43.188;24.160;2024-01-16T01:13:34;98085.97;;;7.28;67.82
26531;BME280;14201;43.188;24.160;2024-01-16T01:16:00;98100.50;;;6.94;68.97
26531;BME280;14201;43.188;24.160;2024-01-16T01:18:26;98104.75;;;6.66;69.60
26531;BME280;14201;43.188;24.160;2024-01-16T01:20:51;98109.97;;;6.15;72.34
26531;BME280;14201;43.188;24.160;2024-01-16T01:23:16;98119.03;;;6.04;73.82
26531;BME280;14201;43.188;24.160;2024-01-16T01:25:42;98137.34;;;6.10;73.66
26531;BME280;14201;43.188;24.160;2024-01-16T01:28:08;98134.88;;;6.13;73.66
26531;BME280;14201;43.188;24.160;2024-01-16T01:30:33;98146.03;;;6.12;74.08
26531;BME280;14201;43.188;24.160;2024-01-16T01:32:59;98157.91;;;6.07;74.20
26531;BME280;14201;43.188;24.160;2024-01-16T01:35:24;98170.22;;;6.14;74.17
26531;BME280;14201;43.188;24.160;2024-01-16T01:37:49;98185.41;;;6.05;74.33
26531;BME280;14201;43.188;24.160;2024-01-16T01:40:15;98199.38;;;6.10;74.01
26531;BME280;14201;43.188;24.160;2024-01-16T01:42:43;98212.53;;;5.94;74.51
26531;BME280;14201;43.188;24.160;2024-01-16T01:45:09;98228.38;;;6.03;74.66
26531;BME280;14201;43.188;24.160;2024-01-16T01:47:35;98246.66;;;6.07;75.39
26531;BME280;14201;43.188;24.160;2024-01-16T01:50:01;98249.31;;;6.09;75.09
26531;BME280;14201;43.188;24.160;2024-01-16T01:52:28;98255.44;;;5.90;74.92
26531;BME280;14201;43.188;24.160;2024-01-16T01:54:54;98276.63;;;5.59;75.60
26531;BME280;14201;43.188;24.160;2024-01-16T01:57:19;98283.91;;;5.25;76.79
26531;BME280;14201;43.188;24.160;2024-01-16T01:59:45;98286.72;;;5.10;77.55
26531;BME280;14201;43.188;24.160;2024-01-16T02:02:10;98302.44;;;4.96;78.02
26531;BME280;14201;43.188;24.160;2024-01-16T02:04:36;98329.00;;;4.73;79.29
26531;BME280;14201;43.188;24.160;2024-01-16T02:07:01;98339.44;;;4.57;79.85
26531;BME280;14201;43.188;24.160;2024-01-16T02:09:28;98350.94;;;4.26;80.37
26531;BME280;14201;43.188;24.160;2024-01-16T02:11:53;98382.22;;;4.34;80.37
26531;BME280;14201;43.188;24.160;2024-01-16T02:14:19;98377.91;;;4.33;80.54
26531;BME280;14201;43.188;24.160;2024-01-16T02:16:44;98381.06;;;4.27;80.44
26531;BME280;14201;43.188;24.160;2024-01-16T02:19:10;98398.28;;;4.28;80.80
26531;BME280;14201;43.188;24.160;2024-01-16T02:21:43;98403.00;;;4.37;81.12
26531;BME280;14201;43.188;24.160;2024-01-16T02:24:11;98421.00;;;4.55;80.84
26531;BME280;14201;43.188;24.160;2024-01-16T02:26:36;98432.84;;;4.69;80.38
26531;BME280;14201;43.188;24.160;2024-01-16T02:29:02;98444.81;;;4.87;80.71
26531;BME280;14201;43.188;24.160;2024-01-16T02:31:29;98461.50;;;4.95;80.53
26531;BME280;14201;43.188;24.160;2024-01-16T02:33:55;98470.03;;;4.94;80.63
26531;BME280;14201;43.188;24.160;2024-01-16T02:36:20;98475.31;;;4.78;80.74
26531;BME280;14201;43.188;24.160;2024-01-16T02:38:45;98481.25;;;4.95;81.12
26531;BME280;14201;43.188;24.160;2024-01-16T02:41:13;98493.22;;;4.92;81.69
26531;BME280;14201;43.188;24.160;2024-01-16T02:43:38;98500.19;;;4.95;82.36
26531;BME280;14201;43.188;24.160;2024-01-16T02:46:04;98507.63;;;5.07;82.53
26531;BME280;14201;43.188;24.160;2024-01-16T02:48:29;98518.81;;;5.07;82.86
26531;BME280;14201;43.188;24.160;2024-01-16T02:50:54;98526.03;;;5.15;83.55
26531;BME280;14201;43.188;24.160;2024-01-16T02:53:20;98529.81;;;5.03;83.96
26531;BME280;14201;43.188;24.160;2024-01-16T02:55:45;98535.50;;;4.96;84.76
26531;BME280;14201;43.188;24.160;2024-01-16T02:58:10;98548.03;;;5.06;84.63
26531;BME280;14201;43.188;24.160;2024-01-16T03:00:36;98549.50;;;5.01;84.52
26531;BME280;14201;43.188;24.160;2024-01-16T03:03:02;98555.19;;;4.94;85.66
26531;BME280;14201;43.188;24.160;2024-01-16T03:05:27;98569.66;;;4.90;85.48
26531;BME280;14201;43.188;24.160;2024-01-16T03:07:53;98576.41;;;4.88;86.13
26531;BME280;14201;43.188;24.160;2024-01-16T03:10:18;98567.06;;;4.72;87.05
26531;BME280;14201;43.188;24.160;2024-01-16T03:12:44;98583.16;;;4.85;86.96
26531;BME280;14201;43.188;24.160;2024-01-16T03:15:09;98582.03;;;4.62;87.73
26531;BME280;14201;43.188;24.160;2024-01-16T03:17:35;98593.44;;;4.67;87.84
26531;BME280;14201;43.188;24.160;2024-01-16T03:20:00;98607.38;;;4.52;88.38
26531;BME280;14201;43.188;24.160;2024-01-16T03:22:28;98611.19;;;4.43;89.04
26531;BME280;14201;43.188;24.160;2024-01-16T03:24:53;98613.16;;;4.30;89.40
26531;BME280;14201;43.188;24.160;2024-01-16T03:27:19;98615.09;;;4.52;88.99
26531;BME280;14201;43.188;24.160;2024-01-16T03:29:44;98609.50;;;4.61;88.24
26531;BME280;14201;43.188;24.160;2024-01-16T03:32:10;98611.09;;;4.41;88.42
26531;BME280;14201;43.188;24.160;2024-01-16T03:34:36;98618.91;;;4.43;89.00
26531;BME280;14201;43.188;24.160;2024-01-16T03:37:01;98626.09;;;4.32;89.73
26531;BME280;14201;43.188;24.160;2024-01-16T03:39:26;98612.56;;;4.36;90.07
26531;BME280;14201;43.188;24.160;2024-01-16T03:41:52;98615.50;;;4.44;89.28
26531;BME280;14201;43.188;24.160;2024-01-16T03:44:17;98618.25;;;4.29;90.50
26531;BME280;14201;43.188;24.160;2024-01-16T03:46:42;98609.09;;;4.36;89.82
26531;BME280;14201;43.188;24.160;2024-01-16T03:49:08;98634.97;;;4.55;88.18
26531;BME280;14201;43.188;24.160;2024-01-16T03:51:33;98639.06;;;4.50;88.08
26531;BME280;14201;43.188;24.160;2024-01-16T03:53:59;98652.31;;;4.58;87.41
26531;BME280;14201;43.188;24.160;2024-01-16T03:56:24;98659.66;;;4.50;86.67
26531;BME280;14201;43.188;24.160;2024-01-16T03:58:49;98667.19;;;4.63;86.61
26531;BME280;14201;43.188;24.160;2024-01-16T04:01:15;98664.59;;;4.63;87.19
26531;BME280;14201;43.188;24.160;2024-01-16T04:03:40;98672.69;;;4.53;85.85
26531;BME280;14201;43.188;24.160;2024-01-16T04:06:18;98681.38;;;4.71;85.35
26531;BME280;14201;43.188;24.160;2024-01-16T04:08:44;98676.41;;;4.76;85.41
26531;BME280;14201;43.188;24.160;2024-01-16T04:11:12;98688.53;;;4.77;84.79
26531;BME280;14201;43.188;24.160;2024-01-16T04:13:38;98687.78;;;4.80;83.51
26531;BME280;14201;43.188;24.160;2024-01-16T04:16:04;98700.00;;;4.84;83.84
26531;BME280;14201;43.188;24.160;2024-01-16T04:18:29;98702.47;;;4.99;83.92
26531;BME280;14201;43.188;24.160;2024-01-16T04:20:54;98694.00;;;5.01;82.85
26531;BME280;14201;43.188;24.160;2024-01-16T04:23:20;98704.53;;;5.06;82.36
26531;BME280;14201;43.188;24.160;2024-01-16T04:25:45;98708.22;;;4.93;82.00
26531;BME280;14201;43.188;24.160;2024-01-16T04:28:11;98707.63;;;4.99;82.60
26531;BME280;14201;43.188;24.160;2024-01-16T04:30:36;98706.97;;;5.03;82.00
26531;BME280;14201;43.188;24.160;2024-01-16T04:33:02;98717.50;;;5.07;81.18
26531;BME280;14201;43.188;24.160;2024-01-16T04:35:27;98714.34;;;4.95;79.50
26531;BME280;14201;43.188;24.160;2024-01-16T04:37:53;98720.06;;;4.89;79.39
26531;BME280;14201;43.188;24.160;2024-01-16T04:40:18;98728.75;;;4.73;80.70
26531;BME280;14201;43.188;24.160;2024-01-16T04:42:43;98742.41;;;4.89;80.07
26531;BME280;14201;43.188;24.160;2024-01-16T04:45:09;98744.72;;;5.01;78.85
26531;BME280;14201;43.188;24.160;2024-01-16T04:47:34;98752.53;;;5.02;78.60
26531;BME280;14201;43.188;24.160;2024-01-16T04:50:00;98758.22;;;5.13;76.69
26531;BME280;14201;43.188;24.160;2024-01-16T04:52:25;98763.84;;;5.22;77.09
26531;BME280;14201;43.188;24.160;2024-01-16T04:54:50;98765.09;;;5.12;77.29
26531;BME280;14201;43.188;24.160;2024-01-16T04:57:16;98772.25;;;5.18;77.24
26531;BME280;14201;43.188;24.160;2024-01-16T04:59:42;98773.03;;;5.17;77.50
26531;BME280;14201;43.188;24.160;2024-01-16T05:02:07;98777.81;;;5.09;77.55
26531;BME280;14201;43.188;24.160;2024-01-16T05:04:33;98772.84;;;4.96;77.09
26531;BME280;14201;43.188;24.160;2024-01-16T05:07:01;98777.13;;;4.96;77.70
26531;BME280;14201;43.188;24.160;2024-01-16T05:09:27;98781.34;;;5.11;76.23
26531;BME280;14201;43.188;24.160;2024-01-16T05:11:52;98786.31;;;5.25;75.46
26531;BME280;14201;43.188;24.160;2024-01-16T05:14:17;98794.91;;;5.24;74.67
26531;BME280;14201;43.188;24.160;2024-01-16T05:16:43;98803.06;;;5.33;74.17
26531;BME280;14201;43.188;24.160;2024-01-16T05:19:09;98804.19;;;5.38;73.59
26531;BME280;14201;43.188;24.160;2024-01-16T05:21:35;98806.63;;;5.35;73.76
26531;BME280;14201;43.188;24.160;2024-01-16T05:24:00;98813.28;;;5.48;73.04
26531;BME280;14201;43.188;24.160;2024-01-16T05:26:25;98821.88;;;5.30;72.21
26531;BME280;14201;43.188;24.160;2024-01-16T05:28:51;98825.00;;;5.41;72.77
26531;BME280;14201;43.188;24.160;2024-01-16T05:31:16;98828.53;;;5.43;72.23
26531;BME280;14201;43.188;24.160;2024-01-16T05:33:42;98828.34;;;5.57;71.24
26531;BME280;14201;43.188;24.160;2024-01-16T05:36:08;98827.81;;;5.64;71.06
26531;BME280;14201;43.188;24.160;2024-01-16T05:38:34;98834.50;;;5.60;70.83
26531;BME280;14201;43.188;24.160;2024-01-16T05:41:00;98843.84;;;5.57;70.09
26531;BME280;14201;43.188;24.160;2024-01-16T05:43:25;98852.00;;;5.66;70.11
26531;BME280;14201;43.188;24.160;2024-01-16T05:45:53;98853.50;;;5.61;69.95
26531;BME280;14201;43.188;24.160;2024-01-16T05:48:18;98859.66;;;5.46;69.76
26531;BME280;14201;43.188;24.160;2024-01-16T05:50:44;98864.50;;;5.22;70.20
26531;BME280;14201;43.188;24.160;2024-01-16T05:53:09;98875.00;;;5.25;70.19
26531;BME280;14201;43.188;24.160;2024-01-16T05:55:35;98876.66;;;5.41;70.24
26531;BME280;14201;43.188;24.160;2024-01-16T05:58:02;98882.84;;;5.45;69.36
26531;BME280;14201;43.188;24.160;2024-01-16T06:00:27;98885.25;;;5.24;69.58
26531;BME280;14201;43.188;24.160;2024-01-16T06:02:53;98890.72;;;5.13;68.39
26531;BME280;14201;43.188;24.160;2024-01-16T06:05:18;98913.88;;;5.12;68.49
26531;BME280;14201;43.188;24.160;2024-01-16T06:07:44;98921.38;;;5.07;68.20
26531;BME280;14201;43.188;24.160;2024-01-16T06:10:11;98926.13;;;5.16;67.14
26531;BME280;14201;43.188;24.160;2024-01-16T06:12:38;98931.31;;;5.16;67.39
26531;BME280;14201;43.188;24.160;2024-01-16T06:15:03;98941.53;;;5.15;66.68
26531;BME280;14201;43.188;24.160;2024-01-16T06:17:29;98952.09;;;5.19;68.25
26531;BME280;14201;43.188;24.160;2024-01-16T06:19:54;98965.97;;;5.21;67.58
26531;BME280;14201;43.188;24.160;2024-01-16T06:22:20;98973.09;;;5.25;67.57
26531;BME280;14201;43.188;24.160;2024-01-16T06:24:45;98975.59;;;5.24;67.67
26531;BME280;14201;43.188;24.160;2024-01-16T06:27:10;98971.22;;;5.39;64.69
26531;BME280;14201;43.188;24.160;2024-01-16T06:29:36;98988.47;;;5.40;64.48
26531;BME280;14201;43.188;24.160;2024-01-16T06:32:01;98999.38;;;5.51;64.39
26531;BME280;14201;43.188;24.160;2024-01-16T06:34:27;99011.53;;;5.53;63.87
26531;BME280;14201;43.188;24.160;2024-01-16T06:36:52;99025.44;;;5.56;62.83
26531;BME280;14201;43.188;24.160;2024-01-16T06:39:18;99028.63;;;5.68;63.04
26531;BME280;14201;43.188;24.160;2024-01-16T06:41:43;99040.28;;;5.76;61.42
26531;BME280;14201;43.188;24.160;2024-01-16T06:44:09;99038.78;;;5.81;60.67
26531;BME280;14201;43.188;24.160;2024-01-16T06:46:34;99044.91;;;5.83;60.77
26531;BME280;14201;43.188;24.160;2024-01-16T06:49:00;99049.06;;;5.80;60.16
26531;BME280;14201;43.188;24.160;2024-01-16T06:51:25;99063.53;;;5.76;59.13
26531;BME280;14201;43.188;24.160;2024-01-16T06:53:51;99067.72;;;5.74;59.92
26531;BME280;14201;43.188;24.160;2024-01-16T06:56:16;99074.66;;;5.75;59.79
26531;BME280;14201;43.188;24.160;2024-01-16T06:58:41;99086.91;;;5.79;60.41
26531;BME280;14201;43.188;24.160;2024-01-16T07:01:08;99088.28;;;5.89;57.85
26531;BME280;14201;43.188;24.160;2024-01-16T07:03:34;99096.28;;;5.94;57.92
26531;BME280;14201;43.188;24.160;2024-01-16T07:05:59;99112.19;;;5.85;58.51
26531;BME280;14201;43.188;24.160;2024-01-16T07:08:25;99115.19;;;5.92;58.33
26531;BME280;14201;43.188;24.160;2024-01-16T07:10:50;99121.25;;;5.77;57.56
26531;BME280;14201;43.188;24.160;2024-01-16T07:13:16;99127.19;;;5.76;57.92
26531;BME280;14201;43.188;24.160;2024-01-16T07:15:41;99131.81;;;5.81;57.74
26531;BME280;14201;43.188;24.160;2024-01-16T07:18:07;99126.81;;;5.84;58.33
26531;BME280;14201;43.188;24.160;2024-01-16T07:20:32;99123.59;;;5.88;57.83
26531;BME280;14201;43.188;24.160;2024-01-16T07:22:57;99133.47;;;5.96;57.30
26531;BME280;14201;43.188;24.160;2024-01-16T07:25:23;99138.97;;;6.02;57.28
26531;BME280;14201;43.188;24.160;2024-01-16T07:27:48;99143.38;;;5.88;55.88
26531;BME280;14201;43.188;24.160;2024-01-16T07:30:15;99159.19;;;5.94;55.64
26531;BME280;14201;43.188;24.160;2024-01-16T07:32:40;99149.75;;;5.95;55.36
26531;BME280;14201;43.188;24.160;2024-01-16T07:35:06;99154.47;;;6.02;55.59
26531;BME280;14201;43.188;24.160;2024-01-16T07:37:31;99151.41;;;6.09;55.51
26531;BME280;14201;43.188;24.160;2024-01-16T07:39:57;99163.16;;;6.20;55.52
26531;BME280;14201;43.188;24.160;2024-01-16T07:42:23;99168.72;;;6.44;56.08
26531;BME280;14201;43.188;24.160;2024-01-16T07:44:48;99162.78;;;6.81;55.56
26531;BME280;14201;43.188;24.160;2024-01-16T07:47:14;99164.66;;;7.20;52.98
26531;BME280;14201;43.188;24.160;2024-01-16T07:49:39;99178.09;;;7.48;52.66
26531;BME280;14201;43.188;24.160;2024-01-16T07:52:04;99182.22;;;7.63;51.50
26531;BME280;14201;43.188;24.160;2024-01-16T07:54:30;99175.28;;;7.81;51.56
26531;BME280;14201;43.188;24.160;2024-01-16T07:56:56;99184.03;;;8.03;50.90
26531;BME280;14201;43.188;24.160;2024-01-16T07:59:21;99193.03;;;8.11;49.45
26531;BME280;14201;43.188;24.160;2024-01-16T08:01:47;99186.66;;;8.04;49.39
26531;BME280;14201;43.188;24.160;2024-01-16T08:04:12;99199.00;;;7.71;49.30
26531;BME280;14201;43.188;24.160;2024-01-16T08:06:38;99188.53;;;7.32;50.38
26531;BME280;14201;43.188;24.160;2024-01-16T08:09:03;99206.09;;;7.20;50.48
26531;BME280;14201;43.188;24.160;2024-01-16T08:11:29;99204.00;;;7.13;50.94
26531;BME280;14201;43.188;24.160;2024-01-16T08:13:55;99205.56;;;7.09;51.21
26531;BME280;14201;43.188;24.160;2024-01-16T08:16:21;99209.78;;;7.25;51.43
26531;BME280;14201;43.188;24.160;2024-01-16T08:18:47;99213.34;;;7.27;50.79
26531;BME280;14201;43.188;24.160;2024-01-16T08:21:12;99239.75;;;7.38;50.32
26531;BME280;14201;43.188;24.160;2024-01-16T08:23:38;99234.41;;;7.35;50.27
26531;BME280;14201;43.188;24.160;2024-01-16T08:26:04;99242.63;;;7.26;49.94
26531;BME280;14201;43.188;24.160;2024-01-16T08:28:30;99258.03;;;7.23;50.75
26531;BME280;14201;43.188;24.160;2024-01-16T08:30:55;99265.56;;;7.18;50.56
26531;BME280;14201;43.188;24.160;2024-01-16T08:33:21;99268.81;;;6.96;50.72
26531;BME280;14201;43.188;24.160;2024-01-16T08:35:47;99276.19;;;6.88;50.57
26531;BME280;14201;43.188;24.160;2024-01-16T08:38:12;99284.53;;;6.66;50.97
26531;BME280;14201;43.188;24.160;2024-01-16T08:40:38;99288.09;;;6.68;50.45
26531;BME280;14201;43.188;24.160;2024-01-16T08:43:03;99302.34;;;6.77;51.33
26531;BME280;14201;43.188;24.160;2024-01-16T08:45:29;99308.63;;;6.65;50.43
26531;BME280;14201;43.188;24.160;2024-01-16T08:47:54;99304.34;;;6.66;50.61
26531;BME280;14201;43.188;24.160;2024-01-16T08:50:19;99300.72;;;6.79;50.77
26531;BME280;14201;43.188;24.160;2024-01-16T08:52:45;99289.00;;;6.69;49.49
26531;BME280;14201;43.188;24.160;2024-01-16T08:55:12;99304.09;;;6.78;50.56
26531;BME280;14201;43.188;24.160;2024-01-16T08:57:37;99309.53;;;6.66;50.19
26531;BME280;14201;43.188;24.160;2024-01-16T09:00:06;99312.09;;;6.66;51.49
26531;BME280;14201;43.188;24.160;2024-01-16T09:02:34;99307.25;;;6.72;51.08
26531;BME280;14201;43.188;24.160;2024-01-16T09:04:59;99304.00;;;6.76;50.59
26531;BME280;14201;43.188;24.160;2024-01-16T09:07:26;99316.72;;;6.72;50.30
26531;BME280;14201;43.188;24.160;2024-01-16T09:09:52;99317.50;;;6.70;50.60
26531;BME280;14201;43.188;24.160;2024-01-16T09:12:17;99308.22;;;6.74;50.36
26531;BME280;14201;43.188;24.160;2024-01-16T09:14:43;99318.91;;;6.64;50.35
26531;BME280;14201;43.188;24.160;2024-01-16T09:17:08;99315.28;;;6.77;50.93
26531;BME280;14201;43.188;24.160;2024-01-16T09:19:33;99315.50;;;6.65;49.74
26531;BME280;14201;43.188;24.160;2024-01-16T09:21:59;99318.44;;;6.71;49.51
26531;BME280;14201;43.188;24.160;2024-01-16T09:24:24;99327.06;;;6.72;49.14
26531;BME280;14201;43.188;24.160;2024-01-16T09:26:50;99331.28;;;6.69;49.62
26531;BME280;14201;43.188;24.160;2024-01-16T09:29:15;99320.09;;;6.70;49.20
26531;BME280;14201;43.188;24.160;2024-01-16T09:31:41;99322.94;;;6.59;48.94
26531;BME280;14201;43.188;24.160;2024-01-16T09:34:07;99325.13;;;6.67;48.70
26531;BME280;14201;43.188;24.160;2024-01-16T09:36:32;99326.84;;;6.67;48.87
26531;BME280;14201;43.188;24.160;2024-01-16T09:39:01;99328.50;;;6.66;48.05
26531;BME280;14201;43.188;24.160;2024-01-16T09:41:27;99327.06;;;6.72;48.05
26531;BME280;14201;43.188;24.160;2024-01-16T09:43:52;99334.00;;;6.73;48.16
26531;BME280;14201;43.188;24.160;2024-01-16T09:46:19;99326.19;;;6.71;47.84
26531;BME280;14201;43.188;24.160;2024-01-16T09:48:47;99336.13;;;6.63;48.97
26531;BME280;14201;43.188;24.160;2024-01-16T09:51:13;99348.75;;;6.74;49.05
26531;BME280;14201;43.188;24.160;2024-01-16T09:53:42;99354.97;;;6.77;48.88
26531;BME280;14201;43.188;24.160;2024-01-16T09:56:09;99354.41;;;6.83;48.72
26531;BME280;14201;43.188;24.160;2024-01-16T09:58:39;99359.06;;;6.90;48.63
26531;BME280;14201;43.188;24.160;2024-01-16T10:01:05;99369.44;;;6.90;49.35
26531;BME280;14201;43.188;24.160;2024-01-16T10:03:30;99361.03;;;6.94;48.78
26531;BME280;14201;43.188;24.160;2024-01-16T10:05:56;99369.34;;;7.05;49.70
26531;BME280;14201;43.188;24.160;2024-01-16T10:08:25;99372.72;;;7.20;49.77
26531;BME280;14201;43.188;24.160;2024-01-16T10:10:50;99369.56;;;7.26;49.56
26531;BME280;14201;43.188;24.160;2024-01-16T10:13:16;99362.72;;;7.44;49.62
26531;BME280;14201;43.188;24.160;2024-01-16T10:15:42;99378.19;;;7.43;48.66
26531;BME280;14201;43.188;24.160;2024-01-16T10:18:21;99371.88;;;7.38;48.96
26531;BME280;14201;43.188;24.160;2024-01-16T10:20:47;99369.69;;;7.45;48.67
26531;BME280;14201;43.188;24.160;2024-01-16T10:23:15;99357.38;;;7.41;48.66
26531;BME280;14201;43.188;24.160;2024-01-16T10:25:47;99366.66;;;7.54;47.74
26531;BME280;14201;43.188;24.160;2024-01-16T10:28:29;99374.69;;;7.42;48.75
26531;BME280;14201;43.188;24.160;2024-01-16T10:31:01;99387.03;;;7.46;48.71
26531;BME280;14201;43.188;24.160;2024-01-16T10:33:26;99386.19;;;7.47;48.39
26531;BME280;14201;43.188;24.160;2024-01-16T10:35:58;99392.19;;;7.46;47.28
26531;BME280;14201;43.188;24.160;2024-01-16T10:38:33;99396.34;;;7.43;48.17
26531;BME280;14201;43.188;24.160;2024-01-16T10:41:09;99397.28;;;7.45;48.21
26531;BME280;14201;43.188;24.160;2024-01-16T10:43:38;99400.59;;;7.42;48.58
26531;BME280;14201;43.188;24.160;2024-01-16T10:46:14;99395.88;;;7.52;47.90
26531;BME280;14201;43.188;24.160;2024-01-16T10:51:24;99392.38;;;7.17;49.79
26531;BME280;14201;43.188;24.160;2024-01-16T10:53:51;99400.56;;;7.24;49.99
26531;BME280;14201;43.188;24.160;2024-01-16T10:56:20;99414.78;;;7.33;50.85
26531;BME280;14201;43.188;24.160;2024-01-16T10:58:45;99419.09;;;7.32;50.20
26531;BME280;14201;43.188;24.160;2024-01-16T11:01:16;99415.84;;;7.36;50.69
26531;BME280;14201;43.188;24.160;2024-01-16T11:03:49;99421.19;;;7.39;50.62
26531;BME280;14201;43.188;24.160;2024-01-16T11:06:15;99422.16;;;7.41;51.59
26531;BME280;14201;43.188;24.160;2024-01-16T11:08:41;99433.00;;;7.34;52.03
26531;BME280;14201;43.188;24.160;2024-01-16T11:11:07;99429.03;;;7.41;52.19
26531;BME280;14201;43.188;24.160;2024-01-16T11:13:33;99441.09;;;7.40;52.74
26531;BME280;14201;43.188;24.160;2024-01-16T11:16:00;99440.47;;;7.44;52.90
26531;BME280;14201;43.188;24.160;2024-01-16T11:18:26;99428.31;;;7.43;51.91
26531;BME280;14201;43.188;24.160;2024-01-16T11:20:52;99439.31;;;7.39;52.50
26531;BME280;14201;43.188;24.160;2024-01-16T11:23:19;99446.44;;;7.43;51.85
26531;BME280;14201;43.188;24.160;2024-01-16T11:25:45;99441.25;;;7.43;51.90
26531;BME280;14201;43.188;24.160;2024-01-16T11:28:11;99459.56;;;7.46;52.30
26531;BME280;14201;43.188;24.160;2024-01-16T11:30:37;99464.97;;;7.51;51.68
26531;BME280;14201;43.188;24.160;2024-01-16T11:33:03;99464.09;;;7.51;52.46
26531;BME280;14201;43.188;24.160;2024-01-16T11:35:32;99462.28;;;7.49;52.49
26531;BME280;14201;43.188;24.160;2024-01-16T11:40:36;99456.47;;;7.21;52.29
26531;BME280;14201;43.188;24.160;2024-01-16T11:45:49;99454.88;;;7.06;53.39
26531;BME280;14201;43.188;24.160;2024-01-16T11:48:16;99476.56;;;7.08;53.76
26531;BME280;14201;43.188;24.160;2024-01-16T11:50:42;99469.22;;;7.16;53.76
26531;BME280;14201;43.188;24.160;2024-01-16T11:53:08;99473.66;;;7.19;53.34
26531;BME280;14201;43.188;24.160;2024-01-16T12:01:03;99486.69;;;7.20;52.50
26531;BME280;14201;43.188;24.160;2024-01-16T12:03:30;99487.75;;;7.24;52.91
26531;BME280;14201;43.188;24.160;2024-01-16T12:05:56;99488.94;;;7.30;53.57
26531;BME280;14201;43.188;24.160;2024-01-16T12:08:22;99503.47;;;7.27;53.39
26531;BME280;14201;43.188;24.160;2024-01-16T12:10:47;99511.84;;;7.23;52.75
26531;BME280;14201;43.188;24.160;2024-01-16T12:13:13;99503.78;;;7.33;53.17
26531;BME280;14201;43.188;24.160;2024-01-16T12:15:39;99500.94;;;7.45;53.36
26531;BME280;14201;43.188;24.160;2024-01-16T12:18:04;99509.41;;;7.42;53.22
26531;BME280;14201;43.188;24.160;2024-01-16T12:20:30;99510.16;;;7.40;53.45
26531;BME280;14201;43.188;24.160;2024-01-16T12:22:57;99514.88;;;7.47;52.90
26531;BME280;14201;43.188;24.160;2024-01-16T12:25:24;99517.19;;;7.42;52.81
26531;BME280;14201;43.188;24.160;2024-01-16T12:27:59;99521.00;;;7.49;51.95
26531;BME280;14201;43.188;24.160;2024-01-16T12:30:35;99524.81;;;7.39;52.58
26531;BME280;14201;43.188;24.160;2024-01-16T12:35:33;99522.88;;;7.35;53.20
26531;BME280;14201;43.188;24.160;2024-01-16T12:38:01;99527.41;;;7.39;52.74
26531;BME280;14201;43.188;24.160;2024-01-16T12:40:27;99516.72;;;7.17;52.62
26531;BME280;14201;43.188;24.160;2024-01-16T12:42:53;99521.09;;;7.18;53.63
26531;BME280;14201;43.188;24.160;2024-01-16T12:45:19;99517.53;;;7.16;52.98
26531;BME280;14201;43.188;24.160;2024-01-16T12:47:49;99515.00;;;7.17;52.95
26531;BME280;14201;43.188;24.160;2024-01-16T12:50:25;99520.25;;;7.19;52.89
26531;BME280;14201;43.188;24.160;2024-01-16T12:53:01;99521.88;;;7.17;53.58
26531;BME280;14201;43.188;24.160;2024-01-16T12:55:27;99518.91;;;7.25;53.18
26531;BME280;14201;43.188;24.160;2024-01-16T13:00:37;99522.88;;;7.52;52.51
26531;BME280;14201;43.188;24.160;2024-01-16T13:03:04;99516.38;;;7.60;53.08
26531;BME280;14201;43.188;24.160;2024-01-16T13:05:29;99515.63;;;7.79;52.16
26531;BME280;14201;43.188;24.160;2024-01-16T13:08:01;99520.41;;;7.87;51.98
26531;BME280;14201;43.188;24.160;2024-01-16T13:10:30;99532.13;;;7.97;51.49
26531;BME280;14201;43.188;24.160;2024-01-16T13:15:39;99530.97;;;8.08;52.39